Fundao, Brazil
Current Conditions -  °F | °C
As of 6:00 AM on Sunday 21 Dec 2014 (Local Time) from SBVT Reporting Station
Clear Clear  
Wind Chill: 77°   Ceiling: Unl
Heat Index: 79°   Visibility: 6mi
Dew Point: 66°   Wind: 16mph
Humidity: 69%   Direction: 30°NNE
Pressure: 29.88"   Gusts: NA
Location:  19.93°S, 40.41°W
Report Text: SBVT 210800Z 03014KT CAVOK 25/19 Q1012
Loading
Personal Weather Stations






























Interactive Weather Map New forecast layout! Learn more

10-Day Weather Forecast

Advertisements
Track Severe Weather on mobile